sensor_id;sensor_type;location;lat;lon;timestamp;pressure;altitude;pressure_sealevel;temperature;humidity
13209;BME280;6669;42.678;23.332;2023-05-27T00:01:59;94619.31;;;14.34;100.00
13209;BME280;6669;42.678;23.332;2023-05-27T00:04:27;94616.28;;;14.31;100.00
13209;BME280;6669;42.678;23.332;2023-05-27T00:06:57;94613.03;;;14.22;100.00
13209;BME280;6669;42.678;23.332;2023-05-27T00:09:25;94621.28;;;14.26;100.00
13209;BME280;6669;42.678;23.332;2023-05-27T00:11:53;94614.44;;;14.25;100.00
13209;BME280;6669;42.678;23.332;2023-05-27T00:14:21;94610.06;;;14.32;100.00
13209;BME280;6669;42.678;23.332;2023-05-27T00:16:51;94611.44;;;14.28;100.00
13209;BME280;6669;42.678;23.332;2023-05-27T00:19:19;94611.84;;;14.31;100.00
13209;BME280;6669;42.678;23.332;2023-05-27T00:21:47;94602.56;;;14.22;100.00
13209;BME280;6669;42.678;23.332;2023-05-27T00:24:16;94616.22;;;14.24;100.00
13209;BME280;6669;42.678;23.332;2023-05-27T00:26:44;94611.44;;;14.28;100.00
13209;BME280;6669;42.678;23.332;2023-05-27T00:29:12;94609.53;;;14.08;100.00
13209;BME280;6669;42.678;23.332;2023-05-27T00:31:40;94603.25;;;14.02;100.00
13209;BME280;6669;42.678;23.332;2023-05-27T00:34:08;94607.06;;;14.00;100.00
13209;BME280;6669;42.678;23.332;2023-05-27T00:36:36;94594.75;;;13.87;100.00
13209;BME280;6669;42.678;23.332;2023-05-27T00:39:04;94602.53;;;13.45;100.00
13209;BME280;6669;42.678;23.332;2023-05-27T00:41:34;94593.78;;;13.31;100.00
13209;BME280;6669;42.678;23.332;2023-05-27T00:44:02;94589.19;;;13.12;100.00
13209;BME280;6669;42.678;23.332;2023-05-27T00:46:30;94579.50;;;13.05;100.00
13209;BME280;6669;42.678;23.332;2023-05-27T00:48:58;94580.69;;;13.03;100.00
13209;BME280;6669;42.678;23.332;2023-05-27T00:51:27;94578.44;;;13.21;100.00
13209;BME280;6669;42.678;23.332;2023-05-27T00:53:54;94575.06;;;13.49;100.00
13209;BME280;6669;42.678;23.332;2023-05-27T00:56:22;94549.31;;;13.46;100.00
13209;BME280;6669;42.678;23.332;2023-05-27T00:58:53;94562.94;;;13.77;100.00
13209;BME280;6669;42.678;23.332;2023-05-27T01:01:21;94565.41;;;13.85;100.00
13209;BME280;6669;42.678;23.332;2023-05-27T01:03:52;94567.81;;;13.86;100.00
13209;BME280;6669;42.678;23.332;2023-05-27T01:06:26;94560.50;;;14.10;100.00
13209;BME280;6669;42.678;23.332;2023-05-27T01:09:00;94562.88;;;14.05;100.00
13209;BME280;6669;42.678;23.332;2023-05-27T01:11:36;94549.88;;;14.18;100.00
13209;BME280;6669;42.678;23.332;2023-05-27T01:14:11;94547.88;;;14.20;100.00
13209;BME280;6669;42.678;23.332;2023-05-27T01:16:41;94546.28;;;14.26;100.00
13209;BME280;6669;42.678;23.332;2023-05-27T01:19:13;94531.19;;;14.28;100.00
13209;BME280;6669;42.678;23.332;2023-05-27T01:21:47;94530.41;;;14.34;100.00
13209;BME280;6669;42.678;23.332;2023-05-27T01:24:19;94528.00;;;14.39;100.00
13209;BME280;6669;42.678;23.332;2023-05-27T01:26:47;94525.41;;;14.39;100.00
13209;BME280;6669;42.678;23.332;2023-05-27T01:29:16;94521.53;;;14.35;100.00
13209;BME280;6669;42.678;23.332;2023-05-27T01:31:48;94523.78;;;14.38;100.00
13209;BME280;6669;42.678;23.332;2023-05-27T01:34:22;94507.69;;;14.42;100.00
13209;BME280;6669;42.678;23.332;2023-05-27T01:36:56;94513.94;;;14.47;100.00
13209;BME280;6669;42.678;23.332;2023-05-27T01:39:27;94507.31;;;14.51;100.00
13209;BME280;6669;42.678;23.332;2023-05-27T01:41:56;94503.88;;;14.44;100.00
13209;BME280;6669;42.678;23.332;2023-05-27T01:44:25;94504.06;;;14.36;100.00
13209;BME280;6669;42.678;23.332;2023-05-27T01:46:58;94500.84;;;14.34;100.00
13209;BME280;6669;42.678;23.332;2023-05-27T01:49:27;94507.88;;;14.40;100.00
13209;BME280;6669;42.678;23.332;2023-05-27T01:51:55;94505.47;;;14.32;100.00
13209;BME280;6669;42.678;23.332;2023-05-27T01:54:23;94503.59;;;14.19;100.00
13209;BME280;6669;42.678;23.332;2023-05-27T01:56:52;94516.25;;;14.09;100.00
13209;BME280;6669;42.678;23.332;2023-05-27T01:59:20;94510.78;;;13.97;100.00
13209;BME280;6669;42.678;23.332;2023-05-27T02:01:48;94515.94;;;13.83;100.00
13209;BME280;6669;42.678;23.332;2023-05-27T02:04:16;94516.31;;;13.73;100.00
13209;BME280;6669;42.678;23.332;2023-05-27T02:06:44;94517.53;;;13.78;100.00
13209;BME280;6669;42.678;23.332;2023-05-27T02:09:12;94516.88;;;13.62;100.00
13209;BME280;6669;42.678;23.332;2023-05-27T02:11:41;94515.94;;;13.77;100.00
13209;BME280;6669;42.678;23.332;2023-05-27T02:14:10;94515.91;;;13.70;100.00
13209;BME280;6669;42.678;23.332;2023-05-27T02:16:39;94518.72;;;13.68;100.00
13209;BME280;6669;42.678;23.332;2023-05-27T02:19:07;94519.09;;;13.65;100.00
13209;BME280;6669;42.678;23.332;2023-05-27T02:21:35;94520.88;;;13.58;100.00
13209;BME280;6669;42.678;23.332;2023-05-27T02:24:04;94512.41;;;13.56;100.00
13209;BME280;6669;42.678;23.332;2023-05-27T02:26:32;94515.44;;;13.53;100.00
13209;BME280;6669;42.678;23.332;2023-05-27T02:29:00;94514.03;;;13.57;100.00
13209;BME280;6669;42.678;23.332;2023-05-27T02:31:29;94517.47;;;13.64;100.00
13209;BME280;6669;42.678;23.332;2023-05-27T02:33:58;94520.34;;;13.76;100.00
13209;BME280;6669;42.678;23.332;2023-05-27T02:36:26;94520.78;;;13.80;100.00
13209;BME280;6669;42.678;23.332;2023-05-27T02:38:54;94524.44;;;13.92;100.00
13209;BME280;6669;42.678;23.332;2023-05-27T02:41:22;94518.81;;;13.95;100.00
13209;BME280;6669;42.678;23.332;2023-05-27T02:43:50;94528.88;;;13.98;100.00
13209;BME280;6669;42.678;23.332;2023-05-27T02:46:17;94521.88;;;13.99;100.00
13209;BME280;6669;42.678;23.332;2023-05-27T02:48:47;94520.06;;;14.06;100.00
13209;BME280;6669;42.678;23.332;2023-05-27T02:51:15;94522.09;;;14.04;100.00
13209;BME280;6669;42.678;23.332;2023-05-27T02:53:43;94526.69;;;14.09;100.00
13209;BME280;6669;42.678;23.332;2023-05-27T02:56:11;94518.28;;;14.06;100.00
13209;BME280;6669;42.678;23.332;2023-05-27T02:58:39;94515.38;;;13.88;100.00
13209;BME280;6669;42.678;23.332;2023-05-27T03:01:07;94512.97;;;13.93;100.00
13209;BME280;6669;42.678;23.332;2023-05-27T03:03:35;94510.00;;;13.96;100.00
13209;BME280;6669;42.678;23.332;2023-05-27T03:06:05;94511.81;;;14.02;100.00
13209;BME280;6669;42.678;23.332;2023-05-27T03:08:34;94515.44;;;14.01;100.00
13209;BME280;6669;42.678;23.332;2023-05-27T03:11:02;94508.97;;;13.97;100.00
13209;BME280;6669;42.678;23.332;2023-05-27T03:13:31;94508.94;;;13.84;100.00
13209;BME280;6669;42.678;23.332;2023-05-27T03:15:59;94517.34;;;13.79;100.00
13209;BME280;6669;42.678;23.332;2023-05-27T03:18:27;94516.56;;;13.79;100.00
13209;BME280;6669;42.678;23.332;2023-05-27T03:20:55;94520.59;;;13.88;100.00
13209;BME280;6669;42.678;23.332;2023-05-27T03:23:24;94527.88;;;13.93;100.00
13209;BME280;6669;42.678;23.332;2023-05-27T03:25:52;94524.22;;;13.87;100.00
13209;BME280;6669;42.678;23.332;2023-05-27T03:28:20;94527.44;;;13.89;100.00
13209;BME280;6669;42.678;23.332;2023-05-27T03:30:48;94526.22;;;13.85;100.00
13209;BME280;6669;42.678;23.332;2023-05-27T03:33:16;94522.56;;;13.79;100.00
13209;BME280;6669;42.678;23.332;2023-05-27T03:35:44;94522.16;;;13.76;100.00
13209;BME280;6669;42.678;23.332;2023-05-27T03:38:12;94532.00;;;13.73;100.00
13209;BME280;6669;42.678;23.332;2023-05-27T03:40:41;94533.75;;;13.66;100.00
13209;BME280;6669;42.678;23.332;2023-05-27T03:43:09;94541.75;;;13.58;100.00
13209;BME280;6669;42.678;23.332;2023-05-27T03:45:37;94532.28;;;13.50;100.00
13209;BME280;6669;42.678;23.332;2023-05-27T03:48:06;94537.88;;;13.47;100.00
13209;BME280;6669;42.678;23.332;2023-05-27T03:50:34;94540.91;;;13.51;100.00
13209;BME280;6669;42.678;23.332;2023-05-27T03:53:02;94539.25;;;13.43;100.00
13209;BME280;6669;42.678;23.332;2023-05-27T03:55:30;94542.66;;;13.44;100.00
13209;BME280;6669;42.678;23.332;2023-05-27T03:57:59;94540.06;;;13.44;100.00
13209;BME280;6669;42.678;23.332;2023-05-27T04:00:27;94528.84;;;13.50;100.00
13209;BME280;6669;42.678;23.332;2023-05-27T04:02:57;94539.16;;;13.58;100.00
13209;BME280;6669;42.678;23.332;2023-05-27T04:05:25;94537.34;;;13.59;100.00
13209;BME280;6669;42.678;23.332;2023-05-27T04:07:53;94539.97;;;13.65;100.00
13209;BME280;6669;42.678;23.332;2023-05-27T04:10:21;94544.97;;;13.60;100.00
13209;BME280;6669;42.678;23.332;2023-05-27T04:12:49;94546.19;;;13.64;100.00
13209;BME280;6669;42.678;23.332;2023-05-27T04:15:18;94537.03;;;13.75;100.00
13209;BME280;6669;42.678;23.332;2023-05-27T04:17:47;94542.91;;;13.84;100.00
13209;BME280;6669;42.678;23.332;2023-05-27T04:20:15;94534.66;;;13.87;100.00
13209;BME280;6669;42.678;23.332;2023-05-27T04:22:43;94543.16;;;14.02;100.00
13209;BME280;6669;42.678;23.332;2023-05-27T04:25:11;94535.97;;;14.11;100.00
13209;BME280;6669;42.678;23.332;2023-05-27T04:27:39;94539.13;;;14.00;100.00
13209;BME280;6669;42.678;23.332;2023-05-27T04:30:08;94537.59;;;14.19;100.00
13209;BME280;6669;42.678;23.332;2023-05-27T04:32:38;94535.59;;;14.28;100.00
13209;BME280;6669;42.678;23.332;2023-05-27T04:35:07;94548.94;;;14.46;100.00
13209;BME280;6669;42.678;23.332;2023-05-27T04:37:36;94547.16;;;14.53;100.00
13209;BME280;6669;42.678;23.332;2023-05-27T04:40:05;94542.94;;;14.59;100.00
13209;BME280;6669;42.678;23.332;2023-05-27T04:42:34;94540.53;;;14.58;100.00
13209;BME280;6669;42.678;23.332;2023-05-27T04:45:04;94550.63;;;14.67;100.00
13209;BME280;6669;42.678;23.332;2023-05-27T04:47:33;94555.88;;;14.67;100.00
13209;BME280;6669;42.678;23.332;2023-05-27T04:50:08;94552.97;;;14.62;100.00
13209;BME280;6669;42.678;23.332;2023-05-27T04:52:36;94549.56;;;14.62;100.00
13209;BME280;6669;42.678;23.332;2023-05-27T04:55:09;94551.56;;;14.60;100.00
13209;BME280;6669;42.678;23.332;2023-05-27T04:57:37;94549.16;;;14.58;100.00
13209;BME280;6669;42.678;23.332;2023-05-27T05:00:09;94554.19;;;14.53;100.00
13209;BME280;6669;42.678;23.332;2023-05-27T05:02:50;94546.34;;;14.53;100.00
13209;BME280;6669;42.678;23.332;2023-05-27T05:05:29;94550.97;;;14.58;100.00
13209;BME280;6669;42.678;23.332;2023-05-27T05:07:58;94545.75;;;14.58;100.00
13209;BME280;6669;42.678;23.332;2023-05-27T05:10:26;94557.06;;;14.78;100.00
13209;BME280;6669;42.678;23.332;2023-05-27T05:12:54;94550.44;;;14.76;100.00
13209;BME280;6669;42.678;23.332;2023-05-27T05:15:23;94552.06;;;14.77;100.00
13209;BME280;6669;42.678;23.332;2023-05-27T05:17:51;94554.66;;;14.70;100.00
13209;BME280;6669;42.678;23.332;2023-05-27T05:20:21;94561.66;;;14.63;100.00
13209;BME280;6669;42.678;23.332;2023-05-27T05:22:51;94563.25;;;14.57;100.00
13209;BME280;6669;42.678;23.332;2023-05-27T05:25:19;94562.03;;;14.53;100.00
13209;BME280;6669;42.678;23.332;2023-05-27T05:27:47;94568.28;;;14.59;100.00
13209;BME280;6669;42.678;23.332;2023-05-27T05:30:15;94566.72;;;14.71;100.00
13209;BME280;6669;42.678;23.332;2023-05-27T05:32:43;94572.19;;;14.83;100.00
13209;BME280;6669;42.678;23.332;2023-05-27T05:35:11;94578.22;;;14.90;100.00
13209;BME280;6669;42.678;23.332;2023-05-27T05:37:39;94567.38;;;14.93;100.00
13209;BME280;6669;42.678;23.332;2023-05-27T05:40:10;94572.38;;;15.01;100.00
13209;BME280;6669;42.678;23.332;2023-05-27T05:42:38;94568.34;;;15.06;100.00
13209;BME280;6669;42.678;23.332;2023-05-27T05:45:07;94572.59;;;15.07;100.00
13209;BME280;6669;42.678;23.332;2023-05-27T05:47:35;94576.00;;;15.00;100.00
13209;BME280;6669;42.678;23.332;2023-05-27T05:50:04;94574.81;;;15.03;100.00
13209;BME280;6669;42.678;23.332;2023-05-27T05:52:32;94572.81;;;14.98;100.00
13209;BME280;6669;42.678;23.332;2023-05-27T05:55:00;94578.84;;;15.06;100.00
13209;BME280;6669;42.678;23.332;2023-05-27T05:57:30;94577.66;;;15.15;100.00
13209;BME280;6669;42.678;23.332;2023-05-27T06:00:02;94581.06;;;15.22;100.00
13209;BME280;6669;42.678;23.332;2023-05-27T06:02:31;94581.47;;;15.26;100.00
13209;BME280;6669;42.678;23.332;2023-05-27T06:05:00;94576.84;;;15.21;100.00
13209;BME280;6669;42.678;23.332;2023-05-27T06:07:27;94584.06;;;15.26;100.00
13209;BME280;6669;42.678;23.332;2023-05-27T06:09:55;94587.31;;;15.34;100.00
13209;BME280;6669;42.678;23.332;2023-05-27T06:12:23;94587.31;;;15.48;100.00
13209;BME280;6669;42.678;23.332;2023-05-27T06:14:54;94585.47;;;15.62;100.00
13209;BME280;6669;42.678;23.332;2023-05-27T06:17:22;94588.69;;;15.71;100.00
13209;BME280;6669;42.678;23.332;2023-05-27T06:19:50;94587.25;;;15.75;100.00
13209;BME280;6669;42.678;23.332;2023-05-27T06:22:18;94590.69;;;15.75;100.00
13209;BME280;6669;42.678;23.332;2023-05-27T06:24:46;94592.69;;;15.87;100.00
13209;BME280;6669;42.678;23.332;2023-05-27T06:27:14;94589.66;;;15.96;100.00
13209;BME280;6669;42.678;23.332;2023-05-27T06:29:42;94594.28;;;16.08;100.00
13209;BME280;6669;42.678;23.332;2023-05-27T06:32:12;94597.47;;;16.16;100.00
13209;BME280;6669;42.678;23.332;2023-05-27T06:34:40;94592.44;;;16.08;100.00
13209;BME280;6669;42.678;23.332;2023-05-27T06:37:08;94600.69;;;16.12;100.00
13209;BME280;6669;42.678;23.332;2023-05-27T06:39:36;94600.50;;;16.13;100.00
13209;BME280;6669;42.678;23.332;2023-05-27T06:42:04;94600.91;;;16.04;100.00
13209;BME280;6669;42.678;23.332;2023-05-27T06:44:32;94602.47;;;16.25;100.00
13209;BME280;6669;42.678;23.332;2023-05-27T06:47:00;94608.06;;;16.35;100.00
13209;BME280;6669;42.678;23.332;2023-05-27T06:49:30;94610.69;;;16.35;100.00
13209;BME280;6669;42.678;23.332;2023-05-27T06:51:58;94606.63;;;16.39;100.00
13209;BME280;6669;42.678;23.332;2023-05-27T06:54:28;94609.66;;;16.43;100.00
13209;BME280;6669;42.678;23.332;2023-05-27T06:56:57;94612.84;;;16.51;100.00
13209;BME280;6669;42.678;23.332;2023-05-27T06:59:25;94611.22;;;16.57;100.00
13209;BME280;6669;42.678;23.332;2023-05-27T07:01:53;94615.03;;;16.61;100.00
13209;BME280;6669;42.678;23.332;2023-05-27T07:04:22;94610.34;;;16.70;100.00
13209;BME280;6669;42.678;23.332;2023-05-27T07:06:52;94612.16;;;16.70;100.00
13209;BME280;6669;42.678;23.332;2023-05-27T07:09:20;94612.53;;;16.73;100.00
13209;BME280;6669;42.678;23.332;2023-05-27T07:11:48;94615.94;;;16.80;100.00
13209;BME280;6669;42.678;23.332;2023-05-27T07:14:16;94607.84;;;16.82;100.00
13209;BME280;6669;42.678;23.332;2023-05-27T07:16:44;94609.03;;;16.93;100.00
13209;BME280;6669;42.678;23.332;2023-05-27T07:19:12;94617.88;;;16.98;100.00
13209;BME280;6669;42.678;23.332;2023-05-27T07:21:40;94614.41;;;17.05;100.00
13209;BME280;6669;42.678;23.332;2023-05-27T07:24:09;94617.09;;;16.98;100.00
13209;BME280;6669;42.678;23.332;2023-05-27T07:26:37;94611.84;;;16.98;100.00
13209;BME280;6669;42.678;23.332;2023-05-27T07:29:06;94616.59;;;17.08;100.00
13209;BME280;6669;42.678;23.332;2023-05-27T07:31:34;94623.22;;;17.17;100.00
13209;BME280;6669;42.678;23.332;2023-05-27T07:34:02;94614.31;;;17.18;100.00
13209;BME280;6669;42.678;23.332;2023-05-27T07:36:30;94625.91;;;17.36;100.00
13209;BME280;6669;42.678;23.332;2023-05-27T07:38:59;94622.31;;;17.30;100.00
13209;BME280;6669;42.678;23.332;2023-05-27T07:41:28;94611.91;;;17.42;100.00
13209;BME280;6669;42.678;23.332;2023-05-27T07:43:56;94621.47;;;17.61;100.00
13209;BME280;6669;42.678;23.332;2023-05-27T07:46:24;94626.66;;;17.68;100.00
13209;BME280;6669;42.678;23.332;2023-05-27T07:48:52;94633.09;;;17.72;100.00
13209;BME280;6669;42.678;23.332;2023-05-27T07:51:20;94626.75;;;17.80;100.00
13209;BME280;6669;42.678;23.332;2023-05-27T07:53:48;94628.19;;;18.01;100.00
13209;BME280;6669;42.678;23.332;2023-05-27T07:56:17;94634.56;;;18.12;100.00
13209;BME280;6669;42.678;23.332;2023-05-27T07:58:46;94632.22;;;18.22;100.00
13209;BME280;6669;42.678;23.332;2023-05-27T08:01:14;94639.53;;;18.39;100.00
13209;BME280;6669;42.678;23.332;2023-05-27T08:03:42;94641.13;;;18.40;100.00
13209;BME280;6669;42.678;23.332;2023-05-27T08:06:12;94636.53;;;18.17;100.00
13209;BME280;6669;42.678;23.332;2023-05-27T08:08:40;94647.22;;;18.40;100.00
13209;BME280;6669;42.678;23.332;2023-05-27T08:11:08;94643.34;;;18.43;100.00
13209;BME280;6669;42.678;23.332;2023-05-27T08:13:36;94639.25;;;18.47;100.00
13209;BME280;6669;42.678;23.332;2023-05-27T08:16:05;94653.34;;;18.34;100.00
13209;BME280;6669;42.678;23.332;2023-05-27T08:18:36;94637.75;;;18.33;100.00
13209;BME280;6669;42.678;23.332;2023-05-27T08:21:04;94644.41;;;18.54;100.00
13209;BME280;6669;42.678;23.332;2023-05-27T08:23:32;94634.38;;;18.62;100.00
13209;BME280;6669;42.678;23.332;2023-05-27T08:26:00;94641.50;;;18.62;100.00
13209;BME280;6669;42.678;23.332;2023-05-27T08:28:28;94643.28;;;18.80;100.00
13209;BME280;6669;42.678;23.332;2023-05-27T08:30:56;94640.84;;;18.48;100.00
13209;BME280;6669;42.678;23.332;2023-05-27T08:33:25;94647.97;;;18.78;100.00
13209;BME280;6669;42.678;23.332;2023-05-27T08:35:53;94648.97;;;18.77;100.00
13209;BME280;6669;42.678;23.332;2023-05-27T08:38:21;94639.50;;;18.57;100.00
13209;BME280;6669;42.678;23.332;2023-05-27T08:40:49;94645.78;;;18.75;100.00
13209;BME280;6669;42.678;23.332;2023-05-27T08:43:17;94635.28;;;18.87;100.00
13209;BME280;6669;42.678;23.332;2023-05-27T08:45:47;94641.22;;;18.82;100.00
13209;BME280;6669;42.678;23.332;2023-05-27T08:48:15;94624.47;;;18.46;100.00
13209;BME280;6669;42.678;23.332;2023-05-27T08:50:45;94634.66;;;18.73;100.00
13209;BME280;6669;42.678;23.332;2023-05-27T08:53:13;94630.78;;;18.75;100.00
13209;BME280;6669;42.678;23.332;2023-05-27T08:55:43;94636.41;;;18.79;100.00
13209;BME280;6669;42.678;23.332;2023-05-27T08:58:12;94630.56;;;18.77;100.00
13209;BME280;6669;42.678;23.332;2023-05-27T09:00:42;94627.56;;;18.73;100.00
13209;BME280;6669;42.678;23.332;2023-05-27T09:03:10;94627.13;;;18.76;100.00
13209;BME280;6669;42.678;23.332;2023-05-27T09:05:38;94626.53;;;18.74;100.00
13209;BME280;6669;42.678;23.332;2023-05-27T09:08:08;94623.25;;;18.79;100.00
13209;BME280;6669;42.678;23.332;2023-05-27T09:10:36;94621.22;;;18.62;100.00
13209;BME280;6669;42.678;23.332;2023-05-27T09:13:05;94623.09;;;18.74;100.00
13209;BME280;6669;42.678;23.332;2023-05-27T09:15:33;94623.91;;;18.74;100.00
13209;BME280;6669;42.678;23.332;2023-05-27T09:18:03;94606.84;;;18.77;100.00
13209;BME280;6669;42.678;23.332;2023-05-27T09:20:31;94618.25;;;18.89;100.00
13209;BME280;6669;42.678;23.332;2023-05-27T09:23:00;94622.72;;;18.89;100.00
13209;BME280;6669;42.678;23.332;2023-05-27T09:25:30;94621.63;;;18.97;100.00
13209;BME280;6669;42.678;23.332;2023-05-27T09:27:58;94611.66;;;18.99;100.00
13209;BME280;6669;42.678;23.332;2023-05-27T09:30:26;94617.63;;;19.06;100.00
13209;BME280;6669;42.678;23.332;2023-05-27T09:33:00;94615.59;;;19.08;100.00
13209;BME280;6669;42.678;23.332;2023-05-27T09:35:29;94617.53;;;19.13;100.00
13209;BME280;6669;42.678;23.332;2023-05-27T09:38:05;94607.44;;;18.98;100.00
13209;BME280;6669;42.678;23.332;2023-05-27T09:40:35;94606.09;;;18.88;100.00
13209;BME280;6669;42.678;23.332;2023-05-27T09:43:05;94608.09;;;18.93;100.00
13209;BME280;6669;42.678;23.332;2023-05-27T09:45:33;94593.09;;;18.93;100.00
13209;BME280;6669;42.678;23.332;2023-05-27T09:48:02;94604.97;;;19.26;100.00
13209;BME280;6669;42.678;23.332;2023-05-27T09:50:30;94595.69;;;19.36;100.00
13209;BME280;6669;42.678;23.332;2023-05-27T09:52:59;94602.81;;;19.71;100.00
13209;BME280;6669;42.678;23.332;2023-05-27T09:55:39;94592.16;;;19.77;100.00
13209;BME280;6669;42.678;23.332;2023-05-27T09:58:08;94598.38;;;19.95;100.00
13209;BME280;6669;42.678;23.332;2023-05-27T10:00:38;94608.81;;;20.14;100.00
13209;BME280;6669;42.678;23.332;2023-05-27T10:03:08;94608.63;;;20.44;100.00
13209;BME280;6669;42.678;23.332;2023-05-27T10:05:38;94609.56;;;20.67;100.00
13209;BME280;6669;42.678;23.332;2023-05-27T10:08:07;94609.59;;;20.96;100.00
13209;BME280;6669;42.678;23.332;2023-05-27T10:10:52;94603.88;;;21.33;100.00
13209;BME280;6669;42.678;23.332;2023-05-27T10:13:21;94596.28;;;21.19;100.00
13209;BME280;6669;42.678;23.332;2023-05-27T10:15:51;94610.94;;;21.44;100.00
13209;BME280;6669;42.678;23.332;2023-05-27T10:18:23;94605.97;;;21.48;100.00
13209;BME280;6669;42.678;23.332;2023-05-27T10:20:56;94608.16;;;21.68;100.00
13209;BME280;6669;42.678;23.332;2023-05-27T10:23:25;94602.59;;;21.86;100.00
13209;BME280;6669;42.678;23.332;2023-05-27T10:25:57;94598.44;;;21.91;100.00
13209;BME280;6669;42.678;23.332;2023-05-27T10:28:30;94597.41;;;22.14;100.00
13209;BME280;6669;42.678;23.332;2023-05-27T10:31:06;94598.69;;;22.11;100.00
13209;BME280;6669;42.678;23.332;2023-05-27T10:33:36;94586.88;;;21.97;100.00
13209;BME280;6669;42.678;23.332;2023-05-27T10:36:07;94599.22;;;22.30;100.00
13209;BME280;6669;42.678;23.332;2023-05-27T10:38:36;94589.72;;;22.12;100.00
13209;BME280;6669;42.678;23.332;2023-05-27T10:41:06;94579.22;;;22.00;100.00
13209;BME280;6669;42.678;23.332;2023-05-27T10:43:36;94585.47;;;22.11;100.00
13209;BME280;6669;42.678;23.332;2023-05-27T10:46:07;94588.25;;;21.82;100.00
13209;BME280;6669;42.678;23.332;2023-05-27T10:48:36;94580.38;;;21.87;100.00
13209;BME280;6669;42.678;23.332;2023-05-27T10:51:07;94572.81;;;21.74;100.00
13209;BME280;6669;42.678;23.332;2023-05-27T10:53:36;94583.78;;;21.66;100.00
13209;BME280;6669;42.678;23.332;2023-05-27T10:56:07;94577.44;;;21.67;100.00
13209;BME280;6669;42.678;23.332;2023-05-27T10:58:37;94578.94;;;21.46;100.00
13209;BME280;6669;42.678;23.332;2023-05-27T11:01:09;94581.88;;;21.61;100.00
13209;BME280;6669;42.678;23.332;2023-05-27T11:03:42;94573.41;;;21.81;100.00
13209;BME280;6669;42.678;23.332;2023-05-27T11:06:12;94568.44;;;21.85;100.00
13209;BME280;6669;42.678;23.332;2023-05-27T11:08:42;94566.34;;;21.87;100.00
13209;BME280;6669;42.678;23.332;2023-05-27T11:11:12;94565.53;;;21.86;100.00
13209;BME280;6669;42.678;23.332;2023-05-27T11:13:42;94564.94;;;22.01;100.00
13209;BME280;6669;42.678;23.332;2023-05-27T11:16:14;94563.97;;;22.08;100.00
13209;BME280;6669;42.678;23.332;2023-05-27T11:18:44;94561.25;;;22.25;100.00
13209;BME280;6669;42.678;23.332;2023-05-27T11:21:15;94558.06;;;22.23;100.00
13209;BME280;6669;42.678;23.332;2023-05-27T11:23:45;94554.06;;;22.20;100.00
13209;BME280;6669;42.678;23.332;2023-05-27T11:26:19;94553.38;;;22.30;100.00
13209;BME280;6669;42.678;23.332;2023-05-27T11:28:49;94560.56;;;22.79;100.00
13209;BME280;6669;42.678;23.332;2023-05-27T11:31:18;94549.69;;;23.08;100.00
13209;BME280;6669;42.678;23.332;2023-05-27T11:33:50;94546.13;;;23.99;100.00
13209;BME280;6669;42.678;23.332;2023-05-27T11:36:19;94545.78;;;24.49;100.00
13209;BME280;6669;42.678;23.332;2023-05-27T11:38:54;94539.22;;;24.67;100.00
13209;BME280;6669;42.678;23.332;2023-05-27T11:41:26;94526.38;;;24.48;100.00
13209;BME280;6669;42.678;23.332;2023-05-27T11:43:56;94533.84;;;24.62;100.00
13209;BME280;6669;42.678;23.332;2023-05-27T11:46:33;94530.75;;;25.22;100.00
13209;BME280;6669;42.678;23.332;2023-05-27T11:49:03;94530.75;;;25.58;96.47
13209;BME280;6669;42.678;23.332;2023-05-27T11:51:32;94528.03;;;25.89;90.97
13209;BME280;6669;42.678;23.332;2023-05-27T11:54:01;94517.47;;;25.48;89.16
13209;BME280;6669;42.678;23.332;2023-05-27T11:56:31;94517.38;;;25.94;96.72
13209;BME280;6669;42.678;23.332;2023-05-27T11:58:59;94501.34;;;26.15;89.72
13209;BME280;6669;42.678;23.332;2023-05-27T12:01:27;94521.34;;;26.62;91.89
13209;BME280;6669;42.678;23.332;2023-05-27T12:03:55;94515.94;;;26.72;88.46
13209;BME280;6669;42.678;23.332;2023-05-27T12:06:23;94515.53;;;26.50;79.93
13209;BME280;6669;42.678;23.332;2023-05-27T12:08:51;94507.75;;;26.58;84.95
13209;BME280;6669;42.678;23.332;2023-05-27T12:11:19;94502.63;;;27.12;80.88
13209;BME280;6669;42.678;23.332;2023-05-27T12:13:48;94511.50;;;27.37;80.59
13209;BME280;6669;42.678;23.332;2023-05-27T12:16:17;94500.75;;;27.47;75.74
13209;BME280;6669;42.678;23.332;2023-05-27T12:18:45;94499.75;;;27.38;81.15
13209;BME280;6669;42.678;23.332;2023-05-27T12:21:14;94488.50;;;26.77;81.98
13209;BME280;6669;42.678;23.332;2023-05-27T12:23:42;94496.00;;;27.04;82.50
13209;BME280;6669;42.678;23.332;2023-05-27T12:26:12;94489.72;;;26.90;85.60
13209;BME280;6669;42.678;23.332;2023-05-27T12:28:41;94486.88;;;26.76;81.33
13209;BME280;6669;42.678;23.332;2023-05-27T12:31:11;94479.47;;;26.68;87.85
13209;BME280;6669;42.678;23.332;2023-05-27T12:33:39;94466.00;;;26.88;85.97
13209;BME280;6669;42.678;23.332;2023-05-27T12:36:07;94470.94;;;27.35;78.71
13209;BME280;6669;42.678;23.332;2023-05-27T12:38:35;94466.91;;;26.73;76.90
13209;BME280;6669;42.678;23.332;2023-05-27T12:41:03;94469.56;;;27.08;78.44
13209;BME280;6669;42.678;23.332;2023-05-27T12:43:31;94465.94;;;27.28;79.17
13209;BME280;6669;42.678;23.332;2023-05-27T12:45:59;94463.91;;;27.15;82.59
13209;BME280;6669;42.678;23.332;2023-05-27T12:48:28;94459.97;;;27.36;79.00
13209;BME280;6669;42.678;23.332;2023-05-27T12:50:56;94456.44;;;27.17;78.30
13209;BME280;6669;42.678;23.332;2023-05-27T12:53:24;94447.31;;;27.52;79.42
13209;BME280;6669;42.678;23.332;2023-05-27T12:55:52;94441.13;;;27.57;75.42
13209;BME280;6669;42.678;23.332;2023-05-27T12:58:20;94433.13;;;28.00;71.18
13209;BME280;6669;42.678;23.332;2023-05-27T13:00:48;94426.81;;;28.15;69.24